Time;durP1;ratioP1;P1;durP2;ratioP2;P2;SDS_P1;SDS_P2;PMS_P1;PMS_P2;Temp;Humidity;BMP_temperature;BMP_pressure;BME280_temperature;BME280_humidity;BME280_pressure;Samples;Min_cycle;Max_cycle;Signal;HPM_P1;HPM_P2
2021/08/31 00:01:38;;;;;;;2.30;1.57;;;22.50;68.10;;;;;;5039686;28;20840;-44
2021/08/31 00:04:09;;;;;;;5.23;1.70;;;22.50;68.40;;;;;;5039426;28;20453;-43
2021/08/31 00:06:40;;;;;;;1.73;1.50;;;22.40;68.10;;;;;;5039752;28;20854;-44
2021/08/31 00:09:12;;;;;;;2.00;1.60;;;22.30;69.00;;;;;;5038971;28;20428;-44
2021/08/31 00:11:45;;;;;;;2.90;1.63;;;22.40;68.10;;;;;;5039838;28;20400;-44
2021/08/31 00:14:17;;;;;;;2.27;1.57;;;22.40;68.50;;;;;;5039087;28;20531;-45
2021/08/31 00:16:48;;;;;;;2.00;1.53;;;22.20;66.90;;;;;;5039774;28;20458;-51
2021/08/31 00:19:19;;;;;;;1.53;1.43;;;22.10;68.00;;;;;;5039185;28;20424;-44
2021/08/31 00:21:51;;;;;;;2.00;1.60;;;21.90;69.40;;;;;;5039660;28;20488;-48
2021/08/31 00:24:22;;;;;;;2.93;1.70;;;21.90;69.30;;;;;;5021627;28;20421;-45
2021/08/31 00:26:56;;;;;;;2.07;1.70;;;21.90;69.90;;;;;;5020125;28;20447;-46
2021/08/31 00:29:30;;;;;;;2.00;1.63;;;21.90;70.10;;;;;;5019416;28;20449;-45
2021/08/31 00:32:01;;;;;;;2.17;1.67;;;21.80;70.30;;;;;;5019827;28;20454;-45
2021/08/31 00:34:33;;;;;;;3.90;1.87;;;21.90;70.80;;;;;;5019184;28;20454;-49
2021/08/31 00:37:04;;;;;;;3.20;1.80;;;21.80;70.50;;;;;;5019726;28;20944;-47
2021/08/31 00:39:35;;;;;;;2.20;1.73;;;21.70;70.40;;;;;;5018736;28;20573;-46
2021/08/31 00:42:08;;;;;;;2.20;1.70;;;21.60;70.80;;;;;;5019895;28;20445;-49
2021/08/31 00:44:39;;;;;;;3.07;1.80;;;21.60;70.60;;;;;;5019186;28;20450;-46
2021/08/31 00:47:10;;;;;;;1.70;1.50;;;21.70;71.20;;;;;;5019479;28;20451;-44
2021/08/31 00:49:41;;;;;;;1.60;1.40;;;21.60;70.40;;;;;;5019419;28;20429;-43
2021/08/31 00:52:13;;;;;;;2.43;1.67;;;21.60;70.20;;;;;;5019175;28;20462;-42
2021/08/31 00:54:44;;;;;;;1.73;1.63;;;21.50;70.30;;;;;;5018324;28;20466;-43
2021/08/31 00:57:17;;;;;;;3.40;1.77;;;21.40;72.10;;;;;;5020240;28;20473;-43
2021/08/31 00:59:48;;;;;;;2.87;2.20;;;21.30;72.10;;;;;;5022305;28;20496;-46
2021/08/31 01:02:19;;;;;;;3.00;1.60;;;21.40;71.80;;;;;;5022475;28;20471;-43
2021/08/31 01:04:51;;;;;;;4.03;1.97;;;21.30;72.00;;;;;;5022321;28;20758;-41
2021/08/31 01:07:22;;;;;;;3.50;2.00;;;21.20;72.90;;;;;;5022870;28;20782;-42
2021/08/31 01:09:53;;;;;;;2.90;1.80;;;21.20;72.80;;;;;;5021873;28;20495;-41
2021/08/31 01:12:27;;;;;;;2.17;1.93;;;21.20;72.00;;;;;;5022396;28;20896;-44
2021/08/31 01:14:59;;;;;;;2.50;1.73;;;21.20;72.80;;;;;;5022106;28;20432;-47
2021/08/31 01:17:30;;;;;;;3.77;1.90;;;21.20;72.30;;;;;;5022299;28;20425;-47
2021/08/31 01:20:02;;;;;;;3.13;1.70;;;21.20;72.30;;;;;;5021926;28;20483;-41
2021/08/31 01:22:34;;;;;;;2.60;1.90;;;20.90;73.80;;;;;;5024212;28;20475;-40
2021/08/31 01:25:09;;;;;;;2.13;1.53;;;20.90;74.10;;;;;;5041410;28;20486;-48
2021/08/31 01:27:40;;;;;;;1.90;1.80;;;20.90;74.10;;;;;;5041673;28;20896;-42
2021/08/31 01:30:12;;;;;;;2.40;1.80;;;20.80;74.30;;;;;;5042058;28;20424;-42
2021/08/31 01:32:43;;;;;;;2.60;2.13;;;20.90;73.10;;;;;;5041811;28;20420;-40
2021/08/31 01:35:14;;;;;;;2.40;1.63;;;20.70;73.30;;;;;;5041877;28;20480;-41
2021/08/31 01:37:45;;;;;;;2.27;2.00;;;20.70;73.50;;;;;;5041574;28;20507;-40
2021/08/31 01:40:18;;;;;;;1.80;1.70;;;20.70;74.40;;;;;;5041432;28;20481;-45
2021/08/31 01:42:49;;;;;;;2.10;1.90;;;20.70;74.40;;;;;;5041753;28;20438;-40
2021/08/31 01:45:20;;;;;;;2.17;1.90;;;20.60;75.10;;;;;;5041630;28;20466;-44
2021/08/31 01:47:51;;;;;;;2.93;2.20;;;20.50;75.20;;;;;;5041697;28;20449;-44
2021/08/31 01:50:22;;;;;;;2.43;2.10;;;20.50;75.70;;;;;;5041749;28;20448;-43
2021/08/31 01:52:53;;;;;;;2.70;2.20;;;20.50;76.50;;;;;;5041228;28;20453;-44
2021/08/31 01:55:26;;;;;;;2.10;1.90;;;20.40;76.90;;;;;;5039028;28;20450;-46
2021/08/31 01:57:57;;;;;;;3.13;2.30;;;20.40;76.40;;;;;;5021671;28;20431;-42
2021/08/31 02:00:28;;;;;;;2.77;2.10;;;20.20;77.10;;;;;;5021437;28;20468;-46
2021/08/31 02:03:00;;;;;;;3.00;2.10;;;20.10;77.80;;;;;;5021919;28;20436;-42
2021/08/31 02:05:31;;;;;;;1.73;1.50;;;20.00;77.90;;;;;;5021634;28;20454;-46
2021/08/31 02:08:04;;;;;;;2.53;1.77;;;20.00;78.60;;;;;;5021209;28;20479;-43
2021/08/31 02:10:36;;;;;;;2.60;1.80;;;20.00;79.80;;;;;;5020735;28;20500;-42
2021/08/31 02:13:07;;;;;;;3.57;2.03;;;19.90;79.50;;;;;;5021480;28;20413;-43
2021/08/31 02:15:38;;;;;;;3.90;1.80;;;19.90;79.80;;;;;;5021363;28;20515;-44
2021/08/31 02:18:10;;;;;;;3.50;1.63;;;19.90;79.80;;;;;;5021606;28;20457;-42
2021/08/31 02:20:41;;;;;;;2.60;1.67;;;19.80;80.10;;;;;;5021116;28;20482;-43
2021/08/31 02:23:13;;;;;;;5.57;2.00;;;19.80;80.30;;;;;;5028451;28;20492;-47
2021/08/31 02:25:45;;;;;;;1.67;1.57;;;19.80;80.40;;;;;;5040406;28;20457;-46
2021/08/31 02:28:16;;;;;;;2.00;1.67;;;19.80;80.90;;;;;;5040945;28;20436;-42
2021/08/31 02:30:47;;;;;;;3.70;1.77;;;19.80;81.20;;;;;;5040970;28;20488;-41
2021/08/31 02:33:18;;;;;;;3.23;1.87;;;19.70;82.00;;;;;;5041163;28;20472;-44
2021/08/31 02:35:49;;;;;;;2.83;1.80;;;19.70;82.30;;;;;;5040852;28;20449;-42
2021/08/31 02:38:21;;;;;;;2.80;2.00;;;19.70;82.50;;;;;;5040715;28;20449;-42
2021/08/31 02:40:53;;;;;;;1.70;1.60;;;19.60;83.10;;;;;;5040413;28;20479;-40
2021/08/31 02:43:24;;;;;;;3.10;2.50;;;19.60;83.40;;;;;;5040960;28;20400;-41
2021/08/31 02:45:55;;;;;;;3.77;2.00;;;19.50;84.20;;;;;;5040725;28;20452;-43
2021/08/31 02:48:26;;;;;;;2.23;2.03;;;19.40;84.60;;;;;;5041023;28;20512;-40
2021/08/31 02:50:57;;;;;;;2.83;1.90;;;19.40;85.60;;;;;;5040815;28;21050;-44
2021/08/31 02:53:28;;;;;;;3.27;2.47;;;19.40;85.70;;;;;;5040325;28;20432;-42
2021/08/31 02:56:01;;;;;;;2.73;2.20;;;19.30;86.20;;;;;;5033602;28;20421;-43
2021/08/31 02:58:32;;;;;;;4.30;1.90;;;19.40;86.80;;;;;;5020818;28;20599;-41
2021/08/31 03:01:27;;;;;;;2.67;2.10;;;19.30;87.50;;;;;;5020895;28;20486;-43
2021/08/31 03:03:57;;;;;;;2.70;2.30;;;19.30;87.60;;;;;;5020606;28;20478;-42
2021/08/31 03:06:29;;;;;;;2.10;1.90;;;19.20;88.20;;;;;;5020749;28;20549;-43
2021/08/31 03:09:01;;;;;;;3.10;2.20;;;19.20;88.40;;;;;;5019901;28;20496;-44
2021/08/31 03:11:34;;;;;;;2.67;2.47;;;19.20;89.30;;;;;;5020741;28;20413;-41
2021/08/31 03:14:08;;;;;;;3.20;2.00;;;19.10;90.20;;;;;;5020550;28;20438;-42
2021/08/31 03:16:39;;;;;;;2.93;2.10;;;19.10;90.10;;;;;;5020596;28;20451;-42
2021/08/31 03:19:11;;;;;;;6.70;2.20;;;19.00;90.30;;;;;;5020449;28;20485;-41
2021/08/31 03:21:42;;;;;;;5.40;2.53;;;19.10;90.50;;;;;;5020399;28;20533;-42
2021/08/31 03:24:14;;;;;;;2.60;2.40;;;19.00;90.80;;;;;;5035551;28;20610;-44
2021/08/31 03:26:47;;;;;;;2.63;2.00;;;19.00;91.10;;;;;;5040152;28;20590;-41
2021/08/31 03:29:18;;;;;;;2.90;2.60;;;19.00;91.20;;;;;;5040104;28;20481;-41
2021/08/31 03:31:49;;;;;;;6.70;2.73;;;18.90;91.50;;;;;;5040293;28;20461;-42
2021/08/31 03:34:20;;;;;;;2.13;1.93;;;18.90;91.80;;;;;;5039985;28;20564;-40
2021/08/31 03:36:51;;;;;;;3.03;2.10;;;18.90;92.10;;;;;;5040053;28;20558;-40
2021/08/31 03:39:23;;;;;;;2.40;2.20;;;18.90;92.30;;;;;;5039312;28;20452;-45
2021/08/31 03:41:55;;;;;;;2.87;1.83;;;18.80;92.80;;;;;;5040343;28;20826;-41
2021/08/31 03:44:27;;;;;;;3.10;2.00;;;18.60;93.30;;;;;;5039822;28;20447;-47
2021/08/31 03:46:58;;;;;;;1.97;1.80;;;18.60;93.80;;;;;;5039911;28;20420;-42
2021/08/31 03:49:29;;;;;;;2.77;2.10;;;18.60;94.10;;;;;;5039950;28;20770;-43
2021/08/31 03:52:00;;;;;;;3.00;2.03;;;18.50;94.40;;;;;;5039929;28;20523;-43
2021/08/31 03:54:31;;;;;;;3.90;2.43;;;18.50;94.80;;;;;;5039138;28;20449;-40
2021/08/31 03:57:04;;;;;;;4.87;2.57;;;18.50;95.30;;;;;;5024359;28;20425;-40
2021/08/31 03:59:35;;;;;;;2.20;1.87;;;18.40;95.50;;;;;;5019944;28;20423;-40
2021/08/31 04:02:06;;;;;;;2.73;1.67;;;18.40;95.60;;;;;;5020238;28;20468;-40
2021/08/31 04:04:37;;;;;;;2.60;1.87;;;18.30;95.90;;;;;;5019907;28;20441;-41
2021/08/31 04:07:08;;;;;;;2.27;1.87;;;18.30;96.30;;;;;;5020183;28;20478;-46
2021/08/31 04:09:39;;;;;;;2.60;1.93;;;18.20;96.40;;;;;;5019216;28;20425;-43
2021/08/31 04:12:13;;;;;;;2.97;1.83;;;18.20;96.50;;;;;;5020083;28;20507;-40
2021/08/31 04:14:45;;;;;;;2.20;1.80;;;18.10;96.90;;;;;;5020141;28;20456;-42
2021/08/31 04:17:16;;;;;;;2.77;2.20;;;18.00;97.50;;;;;;5019555;28;20518;-40
2021/08/31 04:19:47;;;;;;;1.67;1.53;;;18.00;97.50;;;;;;5019851;28;20518;-39
2021/08/31 04:22:18;;;;;;;1.90;1.70;;;18.00;97.70;;;;;;5019811;28;20502;-41
2021/08/31 04:24:49;;;;;;;2.67;1.83;;;17.90;98.00;;;;;;5038797;28;20427;-41
2021/08/31 04:27:22;;;;;;;4.33;2.17;;;17.90;98.00;;;;;;5039169;28;20571;-40
2021/08/31 04:29:53;;;;;;;2.40;1.33;;;17.90;97.90;;;;;;5039678;28;20474;-39
2021/08/31 04:32:24;;;;;;;2.03;1.77;;;17.90;98.20;;;;;;5040976;28;20445;-40
2021/08/31 04:34:57;;;;;;;4.03;2.23;;;17.80;98.10;;;;;;5042937;28;20605;-39
2021/08/31 04:37:28;;;;;;;1.90;1.63;;;17.80;98.50;;;;;;5042901;28;20453;-40
2021/08/31 04:40:00;;;;;;;2.93;1.70;;;17.70;98.90;;;;;;5042285;28;20479;-45
2021/08/31 04:42:32;;;;;;;1.73;1.63;;;17.70;99.00;;;;;;5042350;28;20520;-49
2021/08/31 04:45:04;;;;;;;2.87;1.67;;;17.70;99.10;;;;;;5043277;28;20486;-46
2021/08/31 04:47:35;;;;;;;3.00;2.00;;;17.70;99.20;;;;;;5042520;28;20753;-39
2021/08/31 04:50:06;;;;;;;1.50;1.40;;;17.70;99.40;;;;;;5042579;28;20449;-39
2021/08/31 04:52:38;;;;;;;2.57;2.30;;;17.60;99.60;;;;;;5042396;28;20478;-41
2021/08/31 04:55:09;;;;;;;1.60;1.50;;;17.70;99.70;;;;;;5042208;28;20449;-45
2021/08/31 04:57:42;;;;;;;2.40;1.47;;;17.60;99.90;;;;;;5042207;28;20492;-42
2021/08/31 05:00:14;;;;;;;2.23;1.80;;;17.60;99.90;;;;;;5042854;28;20447;-40
2021/08/31 05:02:45;;;;;;;3.10;1.90;;;17.60;99.90;;;;;;5042414;28;20524;-41
2021/08/31 05:05:16;;;;;;;1.60;1.50;;;17.60;99.90;;;;;;5042297;28;20450;-40
2021/08/31 05:07:47;;;;;;;2.27;1.70;;;17.70;99.90;;;;;;5042185;28;20450;-40
2021/08/31 05:10:18;;;;;;;2.67;1.50;;;17.60;99.90;;;;;;5042264;28;20445;-42
2021/08/31 05:12:51;;;;;;;3.57;1.67;;;17.60;99.90;;;;;;5042034;28;20433;-43
2021/08/31 05:15:22;;;;;;;2.40;1.67;;;17.60;99.90;;;;;;5042677;28;20445;-45
2021/08/31 05:17:53;;;;;;;3.13;1.80;;;17.60;99.90;;;;;;5042098;28;20445;-43
2021/08/31 05:20:25;;;;;;;2.53;1.87;;;17.50;99.90;;;;;;5042226;28;20460;-49
2021/08/31 05:22:57;;;;;;;2.53;1.47;;;17.50;99.90;;;;;;5041706;28;20556;-46
2021/08/31 05:25:28;;;;;;;3.27;2.00;;;17.40;99.90;;;;;;5041938;28;20456;-46
2021/08/31 05:28:01;;;;;;;5.00;1.90;;;17.30;99.90;;;;;;5041981;28;20450;-44
2021/08/31 05:30:32;;;;;;;3.43;1.70;;;17.30;99.90;;;;;;5042428;28;20434;-44
2021/08/31 05:33:03;;;;;;;2.77;1.90;;;17.30;99.90;;;;;;5042278;28;20445;-42
2021/08/31 05:35:34;;;;;;;2.37;1.53;;;17.30;99.90;;;;;;5042000;28;20453;-46
2021/08/31 05:38:05;;;;;;;2.77;2.30;;;17.30;99.90;;;;;;5041544;28;20461;-46
2021/08/31 05:40:36;;;;;;;1.80;1.63;;;17.30;99.90;;;;;;5041581;28;20465;-49
2021/08/31 05:43:08;;;;;;;1.97;1.60;;;17.30;99.90;;;;;;5041461;28;20488;-43
2021/08/31 05:45:40;;;;;;;1.80;1.50;;;17.30;99.90;;;;;;5041791;28;20486;-42
2021/08/31 05:48:11;;;;;;;1.90;1.70;;;17.20;99.90;;;;;;5041739;28;20452;-42
2021/08/31 05:50:42;;;;;;;3.07;2.10;;;17.10;99.90;;;;;;5041899;28;20446;-43
2021/08/31 05:53:13;;;;;;;1.60;1.50;;;17.10;99.90;;;;;;5041621;28;20446;-40
2021/08/31 05:55:44;;;;;;;1.73;1.60;;;17.10;99.90;;;;;;5036860;28;20470;-42
2021/08/31 05:58:16;;;;;;;3.03;2.33;;;17.20;99.90;;;;;;5021623;28;20450;-42
2021/08/31 06:00:47;;;;;;;2.03;1.57;;;17.20;99.90;;;;;;5021690;28;20515;-43
2021/08/31 06:03:19;;;;;;;1.80;1.30;;;17.20;99.90;;;;;;5021945;28;20543;-46
2021/08/31 06:05:50;;;;;;;1.60;1.50;;;17.20;99.90;;;;;;5021949;28;20816;-43
2021/08/31 06:08:21;;;;;;;1.33;1.03;;;17.10;99.90;;;;;;5021380;28;20455;-40
2021/08/31 06:10:52;;;;;;;1.87;1.63;;;17.10;99.90;;;;;;5021629;28;20490;-43
2021/08/31 06:13:25;;;;;;;1.90;1.20;;;17.00;99.90;;;;;;5021790;28;20477;-43
2021/08/31 06:15:56;;;;;;;2.10;1.60;;;17.00;99.90;;;;;;5022034;28;20446;-44
2021/08/31 06:18:27;;;;;;;1.40;1.30;;;17.00;99.90;;;;;;5021362;28;20539;-44
2021/08/31 06:20:58;;;;;;;2.23;1.50;;;17.00;99.90;;;;;;5021707;28;20531;-39
2021/08/31 06:23:29;;;;;;;1.20;1.10;;;17.00;99.90;;;;;;5031138;28;20496;-40
2021/08/31 06:26:00;;;;;;;1.77;1.67;;;17.00;99.90;;;;;;5041307;28;20765;-43
2021/08/31 06:28:33;;;;;;;1.93;1.50;;;17.10;99.90;;;;;;5041600;28;20441;-40
2021/08/31 06:31:04;;;;;;;2.17;1.97;;;17.00;99.90;;;;;;5041448;28;20457;-42
2021/08/31 06:33:35;;;;;;;1.67;1.50;;;16.90;99.90;;;;;;5041699;28;20450;-42
2021/08/31 06:36:06;;;;;;;1.53;1.40;;;16.90;99.90;;;;;;5041700;28;20482;-44
2021/08/31 06:38:37;;;;;;;1.77;1.60;;;16.90;99.90;;;;;;5041018;28;20473;-42
2021/08/31 06:41:08;;;;;;;1.57;1.47;;;16.90;99.90;;;;;;5041215;28;20538;-44
2021/08/31 06:43:41;;;;;;;1.63;1.53;;;16.90;99.90;;;;;;5041259;28;20505;-43
2021/08/31 06:46:13;;;;;;;1.83;1.73;;;16.80;99.90;;;;;;5041388;28;20420;-46
2021/08/31 06:48:44;;;;;;;2.00;1.90;;;16.80;99.90;;;;;;5041020;28;20552;-41
2021/08/31 06:51:16;;;;;;;2.60;1.30;;;16.80;99.90;;;;;;5041228;28;20484;-42
2021/08/31 06:53:47;;;;;;;2.60;1.50;;;16.80;99.90;;;;;;5040803;28;20514;-41
2021/08/31 06:56:20;;;;;;;1.40;1.30;;;16.80;99.90;;;;;;5031394;28;20759;-40
2021/08/31 06:58:53;;;;;;;2.87;1.60;;;16.80;99.90;;;;;;5020703;28;20474;-45
2021/08/31 07:01:24;;;;;;;1.37;1.23;;;16.80;99.90;;;;;;5021372;28;20446;-41
2021/08/31 07:03:55;;;;;;;1.50;1.13;;;16.70;99.90;;;;;;5021005;28;20490;-44
2021/08/31 07:06:26;;;;;;;1.70;1.40;;;16.70;99.90;;;;;;5021117;28;20420;-46
2021/08/31 07:08:58;;;;;;;1.73;1.40;;;16.60;99.90;;;;;;5020183;28;20447;-44
2021/08/31 07:11:29;;;;;;;2.93;1.47;;;16.70;99.90;;;;;;5021145;28;20446;-45
2021/08/31 07:14:02;;;;;;;1.63;1.53;;;16.70;99.90;;;;;;5020639;28;20454;-47
2021/08/31 07:16:33;;;;;;;2.30;1.57;;;16.60;99.90;;;;;;5021059;28;20454;-41
2021/08/31 07:19:04;;;;;;;2.73;1.80;;;16.60;99.90;;;;;;5020505;28;20470;-42
2021/08/31 07:21:35;;;;;;;1.83;1.13;;;16.60;99.90;;;;;;5020757;28;20478;-45
2021/08/31 07:24:07;;;;;;;1.60;1.50;;;16.50;99.90;;;;;;5034744;28;20549;-46
2021/08/31 07:26:38;;;;;;;2.53;1.47;;;16.50;99.90;;;;;;5040582;28;20476;-45
2021/08/31 07:29:10;;;;;;;1.90;1.60;;;16.50;99.90;;;;;;5040203;28;20430;-45
2021/08/31 07:31:44;;;;;;;1.90;1.60;;;16.50;99.90;;;;;;5040495;28;20450;-43
2021/08/31 07:34:19;;;;;;;2.60;1.50;;;16.40;99.90;;;;;;5040430;28;20496;-48
2021/08/31 07:36:50;;;;;;;2.53;2.20;;;16.40;99.90;;;;;;5040437;28;20449;-39
2021/08/31 07:39:21;;;;;;;2.27;1.43;;;16.40;99.90;;;;;;5039346;28;20517;-40
2021/08/31 07:41:52;;;;;;;1.60;1.40;;;16.50;99.90;;;;;;5040044;28;20440;-38
2021/08/31 07:44:25;;;;;;;1.97;1.70;;;16.50;99.90;;;;;;5040012;28;20477;-40
2021/08/31 07:46:57;;;;;;;1.80;1.57;;;16.40;99.90;;;;;;5040148;28;20479;-42
2021/08/31 07:49:28;;;;;;;1.77;1.50;;;16.30;99.90;;;;;;5039834;28;20446;-38
2021/08/31 07:51:59;;;;;;;2.50;1.40;;;16.30;99.90;;;;;;5040371;28;20464;-42
2021/08/31 07:54:30;;;;;;;1.60;1.50;;;16.30;99.90;;;;;;5039046;28;20460;-43
2021/08/31 07:57:01;;;;;;;2.30;1.97;;;16.20;99.90;;;;;;5024992;28;20956;-42
2021/08/31 07:59:34;;;;;;;1.80;1.33;;;16.20;99.90;;;;;;5019941;28;20780;-39
2021/08/31 08:02:05;;;;;;;1.63;1.40;;;16.20;99.90;;;;;;5020097;28;20454;-41
2021/08/31 08:04:36;;;;;;;1.63;1.30;;;16.30;99.90;;;;;;5019811;28;20960;-40
2021/08/31 08:07:07;;;;;;;2.10;1.63;;;16.20;99.90;;;;;;5021072;28;20931;-44
2021/08/31 08:09:38;;;;;;;2.93;1.60;;;16.20;99.90;;;;;;5022628;28;20483;-41
2021/08/31 08:12:10;;;;;;;1.90;1.80;;;16.20;99.90;;;;;;5023723;28;20454;-38
2021/08/31 08:14:42;;;;;;;1.63;1.53;;;16.20;99.90;;;;;;5023494;28;20562;-42
2021/08/31 08:17:13;;;;;;;3.00;1.80;;;16.10;99.90;;;;;;5023515;28;20511;-41
2021/08/31 08:19:44;;;;;;;1.87;1.67;;;16.00;99.90;;;;;;5023076;28;20456;-43
2021/08/31 08:25:04;;;;;;;1.87;1.37;;;16.00;99.90;;;;;;5022907;28;20561;-43
2021/08/31 08:27:35;;;;;;;1.83;1.67;;;15.90;99.90;;;;;;5022713;28;20477;-39
2021/08/31 08:30:09;;;;;;;2.27;1.60;;;15.80;99.90;;;;;;5023060;28;20485;-42
2021/08/31 08:32:40;;;;;;;2.80;1.30;;;15.80;99.90;;;;;;5023304;28;20449;-43
2021/08/31 08:35:12;;;;;;;2.37;1.50;;;15.90;99.90;;;;;;5023433;28;20479;-44
2021/08/31 08:37:44;;;;;;;1.60;1.37;;;15.80;99.90;;;;;;5023003;28;20475;-41
2021/08/31 08:40:15;;;;;;;2.47;1.27;;;15.70;99.90;;;;;;5022851;28;20491;-40
2021/08/31 08:42:46;;;;;;;1.90;1.70;;;15.80;99.90;;;;;;5022710;28;20458;-42
2021/08/31 08:45:19;;;;;;;2.37;1.90;;;15.70;99.90;;;;;;5023405;28;20481;-41
2021/08/31 08:47:50;;;;;;;1.93;1.33;;;15.60;99.90;;;;;;5023281;28;20465;-42
2021/08/31 08:50:21;;;;;;;2.70;1.97;;;15.60;99.90;;;;;;5022740;28;20473;-46
2021/08/31 08:52:52;;;;;;;1.90;1.60;;;15.70;99.90;;;;;;5022394;28;20457;-41
2021/08/31 08:55:26;;;;;;;1.23;1.07;;;15.60;99.90;;;;;;5022641;28;20434;-40
2021/08/31 08:57:57;;;;;;;1.33;1.23;;;15.60;99.90;;;;;;5022625;28;20435;-41
2021/08/31 09:00:58;;;;;;;1.73;1.60;;;15.50;99.90;;;;;;5023222;28;20507;-45
2021/08/31 09:03:31;;;;;;;1.43;1.33;;;15.60;99.90;;;;;;5023205;28;20446;-45
2021/08/31 09:06:10;;;;;;;1.90;0.97;;;15.60;99.90;;;;;;5023067;28;20582;-48
2021/08/31 09:08:43;;;;;;;1.50;1.40;;;15.60;99.90;;;;;;5022603;28;20450;-47
2021/08/31 09:11:26;;;;;;;2.00;1.50;;;15.60;99.90;;;;;;5022747;28;20481;-44
2021/08/31 09:14:19;;;;;;;1.40;1.30;;;15.50;99.90;;;;;;5022470;28;20454;-43
2021/08/31 09:16:54;;;;;;;1.67;1.50;;;15.60;99.90;;;;;;5023176;28;20450;-38
2021/08/31 09:19:36;;;;;;;1.73;1.57;;;15.60;99.90;;;;;;5022539;28;20959;-38
2021/08/31 09:22:16;;;;;;;2.23;1.37;;;15.60;99.90;;;;;;5022832;28;20886;-38
2021/08/31 09:25:01;;;;;;;1.97;1.27;;;15.50;99.90;;;;;;5022159;28;20502;-41
2021/08/31 09:27:36;;;;;;;1.50;1.40;;;15.50;99.90;;;;;;5022573;28;20470;-39
2021/08/31 09:30:19;;;;;;;1.87;1.47;;;15.50;99.90;;;;;;5022815;28;20450;-39
2021/08/31 09:33:06;;;;;;;2.33;1.60;;;15.50;99.90;;;;;;5022411;28;20453;-40
2021/08/31 09:35:38;;;;;;;2.03;1.40;;;15.60;99.90;;;;;;5022767;28;20450;-41
2021/08/31 09:38:10;;;;;;;1.47;1.37;;;15.50;99.90;;;;;;5022200;28;20480;-42
2021/08/31 09:40:44;;;;;;;1.83;1.73;;;15.50;99.90;;;;;;5021558;28;20477;-41
2021/08/31 09:43:17;;;;;;;2.30;1.40;;;15.40;99.90;;;;;;5022312;28;20453;-40
2021/08/31 09:45:49;;;;;;;1.83;1.50;;;15.40;99.90;;;;;;5022506;28;20505;-39
2021/08/31 09:48:23;;;;;;;1.87;1.40;;;15.30;99.90;;;;;;5022446;28;20842;-39
2021/08/31 09:50:56;;;;;;;1.47;1.37;;;15.40;99.90;;;;;;5022134;28;20454;-41
2021/08/31 09:53:28;;;;;;;1.30;1.20;;;15.40;99.90;;;;;;5021790;28;20463;-41
2021/08/31 09:56:08;;;;;;;1.90;1.63;;;15.40;99.90;;;;;;5021494;28;20478;-40
2021/08/31 09:58:40;;;;;;;1.60;1.50;;;15.30;99.90;;;;;;5021606;28;20445;-41
2021/08/31 10:01:12;;;;;;;1.80;1.40;;;15.30;99.90;;;;;;5021876;28;20512;-38
2021/08/31 10:03:45;;;;;;;2.03;1.70;;;15.20;99.90;;;;;;5021994;28;20454;-39
2021/08/31 10:06:16;;;;;;;2.10;1.60;;;15.10;99.90;;;;;;5021558;28;20498;-39
2021/08/31 10:08:47;;;;;;;3.83;2.07;;;15.10;99.90;;;;;;5021685;28;20478;-39
2021/08/31 10:11:18;;;;;;;1.67;1.50;;;15.00;99.90;;;;;;5021563;28;20523;-38
2021/08/31 10:13:50;;;;;;;1.63;1.33;;;15.00;99.90;;;;;;5021450;28;20464;-38
2021/08/31 10:16:22;;;;;;;1.80;1.47;;;15.00;99.90;;;;;;5022154;28;20474;-38
2021/08/31 10:18:57;;;;;;;1.50;1.40;;;14.90;99.90;;;;;;5021535;28;20454;-39
2021/08/31 10:21:30;;;;;;;2.30;1.30;;;14.80;99.90;;;;;;5021662;28;20473;-39
2021/08/31 10:24:03;;;;;;;1.70;1.60;;;14.80;99.90;;;;;;5034732;28;20453;-41
2021/08/31 10:26:35;;;;;;;1.80;1.70;;;14.70;99.90;;;;;;5041615;28;20557;-39
2021/08/31 10:29:28;;;;;;;2.70;1.80;;;14.60;99.90;;;;;;5040900;28;20803;-39
2021/08/31 10:32:01;;;;;;;2.00;1.80;;;14.60;99.90;;;;;;5041449;28;20450;-39
2021/08/31 10:34:46;;;;;;;2.50;1.60;;;14.50;99.90;;;;;;5041263;28;20513;-39
2021/08/31 10:37:21;;;;;;;2.47;1.50;;;14.50;99.90;;;;;;5041195;28;20575;-38
2021/08/31 10:39:53;;;;;;;1.60;1.50;;;14.40;99.90;;;;;;5040369;28;20974;-38
2021/08/31 10:42:44;;;;;;;2.23;1.50;;;14.30;99.90;;;;;;5040720;28;20511;-38
2021/08/31 10:45:33;;;;;;;1.30;1.20;;;14.20;99.90;;;;;;5041187;28;20488;-38
2021/08/31 10:48:37;;;;;;;1.90;1.53;;;14.20;99.90;;;;;;5040783;28;20537;-39
2021/08/31 10:51:11;;;;;;;2.00;1.20;;;14.10;99.90;;;;;;5040937;28;20456;-39
2021/08/31 10:53:43;;;;;;;1.50;1.30;;;14.00;99.90;;;;;;5040474;28;20453;-40
2021/08/31 10:56:30;;;;;;;1.70;1.50;;;13.90;99.90;;;;;;5040731;28;20434;-38
2021/08/31 10:59:02;;;;;;;1.50;1.40;;;14.00;99.90;;;;;;5040469;28;20468;-46
2021/08/31 11:01:39;;;;;;;1.90;1.47;;;13.90;99.90;;;;;;5041064;28;20446;-39
2021/08/31 11:04:28;;;;;;;1.50;1.40;;;13.90;99.90;;;;;;5040705;28;20464;-39
2021/08/31 11:07:02;;;;;;;1.97;1.40;;;13.90;99.90;;;;;;5040865;28;20568;-41
2021/08/31 11:09:34;;;;;;;2.50;1.83;;;13.90;99.90;;;;;;5039761;28;20991;-39
2021/08/31 11:12:10;;;;;;;2.43;1.57;;;13.80;99.90;;;;;;5040674;28;20562;-43
2021/08/31 11:14:55;;;;;;;5.03;2.50;;;13.70;99.90;;;;;;5040573;28;20444;-39
2021/08/31 11:17:40;;;;;;;2.60;2.07;;;13.70;99.90;;;;;;5040732;28;20434;-39
2021/08/31 11:20:20;;;;;;;2.17;1.63;;;13.70;99.90;;;;;;5040887;28;20487;-42
2021/08/31 11:22:55;;;;;;;2.20;1.83;;;13.70;99.90;;;;;;5039672;28;20477;-42
2021/08/31 11:25:30;;;;;;;5.63;2.10;;;13.70;99.90;;;;;;5039943;28;20485;-41
2021/08/31 11:28:03;;;;;;;4.40;1.80;;;13.60;99.90;;;;;;5040064;28;20495;-41
2021/08/31 11:30:49;;;;;;;2.83;2.40;;;13.60;99.90;;;;;;5040443;28;20450;-44
2021/08/31 11:33:23;;;;;;;2.67;1.80;;;13.60;99.90;;;;;;5040296;28;20480;-41
2021/08/31 11:35:56;;;;;;;2.03;1.80;;;13.60;99.90;;;;;;5040368;28;20433;-39
2021/08/31 11:38:33;;;;;;;3.10;2.00;;;13.50;99.90;;;;;;5040084;28;20572;-42
2021/08/31 11:41:18;;;;;;;4.77;2.20;;;13.50;99.90;;;;;;5039390;28;20449;-43
2021/08/31 11:43:51;;;;;;;2.30;1.90;;;13.50;99.90;;;;;;5039329;28;20517;-41
2021/08/31 11:46:24;;;;;;;3.03;2.70;;;13.40;99.90;;;;;;5040274;28;20488;-40
2021/08/31 11:49:11;;;;;;;2.93;2.10;;;13.40;99.90;;;;;;5040083;28;20846;-40
2021/08/31 11:51:43;;;;;;;4.23;2.30;;;13.30;99.90;;;;;;5040188;28;20484;-40
2021/08/31 11:54:16;;;;;;;2.90;2.13;;;13.30;99.90;;;;;;5038966;28;20457;-42
2021/08/31 11:56:56;;;;;;;6.00;2.40;;;13.20;99.90;;;;;;5027000;28;20470;-46
2021/08/31 11:59:38;;;;;;;3.20;2.23;;;13.20;99.90;;;;;;5019504;28;20446;-42
2021/08/31 12:02:15;;;;;;;5.97;3.00;;;13.10;99.90;;;;;;5020226;28;20458;-41
2021/08/31 12:04:48;;;;;;;4.10;2.50;;;13.10;99.90;;;;;;5019606;28;20457;-40
2021/08/31 12:07:19;;;;;;;5.00;2.43;;;12.90;99.90;;;;;;5019755;28;20497;-39
2021/08/31 12:09:54;;;;;;;3.80;2.10;;;12.90;99.90;;;;;;5019107;28;20541;-40
2021/08/31 12:12:26;;;;;;;2.63;2.30;;;12.90;99.90;;;;;;5019538;28;20458;-39
2021/08/31 12:14:57;;;;;;;2.90;2.60;;;12.80;99.90;;;;;;5019912;28;20916;-40
2021/08/31 12:17:32;;;;;;;4.07;2.50;;;12.70;99.90;;;;;;5019746;28;20527;-42
2021/08/31 12:20:09;;;;;;;3.93;3.43;;;12.70;99.90;;;;;;5019851;28;20454;-41
2021/08/31 12:22:41;;;;;;;2.70;2.50;;;12.60;99.90;;;;;;5022196;28;20485;-40
2021/08/31 12:25:15;;;;;;;3.17;2.03;;;12.60;99.90;;;;;;5038963;28;20468;-44
2021/08/31 12:27:48;;;;;;;4.90;2.30;;;12.60;99.90;;;;;;5039100;28;20481;-40
2021/08/31 12:30:21;;;;;;;3.50;2.70;;;12.50;99.90;;;;;;5039541;28;20456;-40
2021/08/31 12:32:57;;;;;;;3.97;2.50;;;12.50;99.90;;;;;;5039442;28;20506;-41
2021/08/31 12:35:32;;;;;;;6.03;2.80;;;12.40;99.90;;;;;;5039644;28;20445;-41
2021/08/31 12:38:08;;;;;;;3.93;2.53;;;12.40;99.90;;;;;;5039163;28;20449;-39
2021/08/31 12:40:58;;;;;;;4.03;2.80;;;12.40;99.90;;;;;;5039042;28;20796;-40
2021/08/31 12:43:30;;;;;;;2.70;2.33;;;12.40;99.90;;;;;;5039028;28;20452;-39
2021/08/31 12:46:03;;;;;;;3.30;2.80;;;12.40;99.90;;;;;;5039237;28;20516;-39
2021/08/31 12:48:39;;;;;;;4.13;2.90;;;12.30;99.90;;;;;;5039414;28;20472;-40
2021/08/31 12:51:10;;;;;;;3.57;2.60;;;12.20;99.90;;;;;;5039522;28;20505;-40
2021/08/31 12:53:42;;;;;;;3.60;2.50;;;12.20;99.90;;;;;;5040122;28;20445;-38
2021/08/31 12:56:16;;;;;;;5.07;2.63;;;12.20;99.90;;;;;;5033708;28;20458;-41
2021/08/31 12:58:47;;;;;;;7.10;2.87;;;12.10;99.90;;;;;;5022316;28;20474;-38
2021/08/31 13:01:19;;;;;;;4.97;2.60;;;12.10;99.90;;;;;;5022826;28;20935;-39
2021/08/31 13:03:53;;;;;;;3.77;2.77;;;12.00;99.90;;;;;;5022199;28;20446;-39
2021/08/31 13:06:34;;;;;;;4.70;2.70;;;12.00;99.90;;;;;;5022787;28;20506;-42
2021/08/31 13:09:08;;;;;;;3.30;2.30;;;12.00;99.90;;;;;;5022048;28;20447;-39
2021/08/31 13:11:42;;;;;;;5.37;2.77;;;12.00;99.90;;;;;;5022690;28;20771;-41
2021/08/31 13:14:15;;;;;;;5.30;2.43;;;12.00;99.90;;;;;;5021834;28;20450;-40
2021/08/31 13:16:47;;;;;;;3.13;2.90;;;12.00;99.90;;;;;;5022683;28;20499;-39
2021/08/31 13:19:19;;;;;;;4.30;3.00;;;12.00;99.90;;;;;;5022213;28;21077;-42
2021/08/31 13:21:51;;;;;;;4.37;3.20;;;12.00;99.90;;;;;;5022508;28;20994;-41